createdAt,value
2018-09-28T00:01:26.748Z,10.70
2018-09-28T00:03:55.150Z,10.70
2018-09-28T00:06:23.499Z,10.80
2018-09-28T00:08:51.884Z,10.80
2018-09-28T00:11:20.229Z,10.90
2018-09-28T00:13:48.612Z,10.90
2018-09-28T00:16:16.968Z,11.00
2018-09-28T00:18:45.423Z,11.00
2018-09-28T00:21:13.753Z,11.10
2018-09-28T00:23:42.153Z,11.10
2018-09-28T00:26:10.498Z,11.10
2018-09-28T00:28:38.865Z,11.10
2018-09-28T00:31:07.231Z,11.20
2018-09-28T00:33:35.613Z,11.20
2018-09-28T00:36:03.981Z,11.20
2018-09-28T00:38:32.352Z,11.20
2018-09-28T00:41:00.696Z,11.20
2018-09-28T00:43:29.078Z,11.10
2018-09-28T00:45:57.410Z,11.10
2018-09-28T00:48:25.792Z,11.10
2018-09-28T00:50:54.152Z,11.20
2018-09-28T00:53:22.536Z,11.20
2018-09-28T00:55:50.876Z,11.10
2018-09-28T00:58:19.274Z,11.10
2018-09-28T01:00:47.619Z,11.10
2018-09-28T01:03:15.996Z,11.10
2018-09-28T01:05:44.368Z,11.10
2018-09-28T01:08:12.843Z,11.10
2018-09-28T01:10:41.213Z,11.10
2018-09-28T01:13:09.551Z,11.00
2018-09-28T01:15:37.954Z,11.00
2018-09-28T01:18:06.345Z,11.00
2018-09-28T01:20:34.746Z,11.00
2018-09-28T01:23:03.095Z,11.00
2018-09-28T01:25:31.683Z,11.00
2018-09-28T01:28:00.334Z,11.00
2018-09-28T01:30:28.788Z,11.00
2018-09-28T01:32:57.160Z,11.00
2018-09-28T01:35:25.539Z,11.10
2018-09-28T01:37:53.897Z,11.10
2018-09-28T01:40:22.304Z,11.10
2018-09-28T01:42:50.679Z,11.10
2018-09-28T01:45:19.094Z,11.10
2018-09-28T01:47:47.496Z,11.10
2018-09-28T01:50:15.965Z,11.10
2018-09-28T01:52:44.324Z,11.10
2018-09-28T01:55:12.844Z,11.10
2018-09-28T01:57:41.192Z,11.10
2018-09-28T02:00:09.592Z,11.10
2018-09-28T02:02:37.953Z,11.10
2018-09-28T02:05:06.366Z,11.10
2018-09-28T02:07:34.713Z,11.10
2018-09-28T02:10:03.094Z,11.10
2018-09-28T02:12:31.530Z,11.10
2018-09-28T02:14:59.885Z,11.00
2018-09-28T02:17:28.237Z,11.00
2018-09-28T02:19:56.635Z,11.00
2018-09-28T02:22:24.992Z,11.00
2018-09-28T02:24:53.372Z,11.00
2018-09-28T02:27:21.725Z,11.00
2018-09-28T02:29:50.082Z,10.90
2018-09-28T02:32:18.453Z,10.90
2018-09-28T02:34:46.841Z,10.90
2018-09-28T02:37:15.225Z,10.90
2018-09-28T02:39:43.589Z,10.90
2018-09-28T02:42:11.968Z,10.90
2018-09-28T02:44:40.305Z,10.80
2018-09-28T02:47:08.688Z,10.80
2018-09-28T02:49:37.039Z,10.80
2018-09-28T02:52:05.417Z,10.80
2018-09-28T02:54:33.768Z,10.80
2018-09-28T02:57:02.217Z,10.80
2018-09-28T02:59:30.546Z,10.70
2018-09-28T03:01:58.917Z,10.70
2018-09-28T03:04:27.804Z,10.70
2018-09-28T03:06:56.161Z,10.70
2018-09-28T03:09:24.553Z,10.70
2018-09-28T03:11:52.909Z,10.60
2018-09-28T03:14:21.300Z,10.60
2018-09-28T03:16:49.665Z,10.60
2018-09-28T03:19:18.037Z,10.60
2018-09-28T03:21:46.401Z,10.60
2018-09-28T03:24:14.773Z,10.50
2018-09-28T03:26:43.174Z,10.50
2018-09-28T03:29:11.534Z,10.40
2018-09-28T03:31:39.946Z,10.40
2018-09-28T03:34:08.332Z,10.40
2018-09-28T03:36:36.748Z,10.30
2018-09-28T03:39:06.200Z,10.30
2018-09-28T03:41:34.623Z,10.30
2018-09-28T03:44:02.964Z,10.20
2018-09-28T03:46:31.343Z,10.20
2018-09-28T03:48:59.663Z,10.20
2018-09-28T03:51:28.024Z,10.10
2018-09-28T03:53:56.353Z,10.10
2018-09-28T03:56:24.746Z,10.10
2018-09-28T03:58:53.092Z,10.10
2018-09-28T04:01:21.473Z,10.10
2018-09-28T04:03:49.800Z,10.00
2018-09-28T04:06:18.230Z,10.00
2018-09-28T04:08:46.565Z,10.00
2018-09-28T04:11:14.940Z,10.00
2018-09-28T04:13:43.286Z,9.90
2018-09-28T04:16:11.733Z,9.90
2018-09-28T04:18:40.092Z,10.00
2018-09-28T04:21:08.497Z,10.00
2018-09-28T04:23:36.840Z,10.00
2018-09-28T04:26:05.208Z,10.00
2018-09-28T04:28:33.755Z,10.00
2018-09-28T04:31:02.193Z,10.00
2018-09-28T04:33:30.529Z,10.00
2018-09-28T04:35:58.954Z,10.00
2018-09-28T04:38:27.364Z,10.00
2018-09-28T04:40:55.804Z,10.00
2018-09-28T04:43:24.206Z,10.00
2018-09-28T04:45:52.568Z,10.10
2018-09-28T04:48:20.947Z,10.10
2018-09-28T04:50:49.298Z,10.10
2018-09-28T04:53:17.698Z,10.10
2018-09-28T04:55:46.052Z,10.10
2018-09-28T04:58:14.514Z,10.10
2018-09-28T05:00:42.908Z,10.10
2018-09-28T05:03:11.287Z,10.00
2018-09-28T05:05:39.765Z,10.00
2018-09-28T05:08:08.148Z,10.10
2018-09-28T05:10:36.496Z,10.10
2018-09-28T05:13:04.984Z,10.20
2018-09-28T05:15:33.276Z,10.10
2018-09-28T05:18:01.692Z,10.10
2018-09-28T05:20:30.054Z,10.10
2018-09-28T05:22:58.461Z,10.10
2018-09-28T05:25:26.883Z,10.00
2018-09-28T05:27:55.223Z,10.00
2018-09-28T05:30:23.564Z,10.00
2018-09-28T05:32:52.145Z,10.00
2018-09-28T05:35:20.372Z,10.00
2018-09-28T05:37:48.745Z,10.00
2018-09-28T05:40:17.084Z,10.00
2018-09-28T05:42:45.494Z,10.00
2018-09-28T05:45:13.825Z,10.00
2018-09-28T05:47:42.195Z,10.00
2018-09-28T05:50:10.553Z,10.00
2018-09-28T05:52:38.920Z,10.00
2018-09-28T05:55:07.272Z,10.00
2018-09-28T05:57:35.657Z,9.90
2018-09-28T06:00:09.264Z,9.90
2018-09-28T06:02:42.923Z,9.90
2018-09-28T06:05:48.580Z,9.90
2018-09-28T06:09:26.529Z,9.90
2018-09-28T06:11:57.855Z,9.90
2018-09-28T06:14:26.217Z,9.90
2018-09-28T06:16:54.545Z,9.90
2018-09-28T06:19:22.927Z,10.00
2018-09-28T06:21:51.253Z,10.30
2018-09-28T06:24:19.675Z,10.40
2018-09-28T06:26:47.986Z,10.50
2018-09-28T06:29:16.360Z,10.50
2018-09-28T06:31:44.729Z,10.60
2018-09-28T06:34:13.184Z,10.60
2018-09-28T06:36:41.561Z,10.70
2018-09-28T06:39:09.940Z,10.70
2018-09-28T06:41:38.292Z,10.80
2018-09-28T06:44:06.684Z,10.80
2018-09-28T06:46:35.029Z,10.90
2018-09-28T06:49:03.405Z,11.00
2018-09-28T06:51:31.755Z,11.00
2018-09-28T06:54:00.138Z,11.20
2018-09-28T06:56:28.517Z,11.20
2018-09-28T06:58:56.912Z,11.30
2018-09-28T07:01:25.267Z,11.50
2018-09-28T07:03:53.710Z,11.60
2018-09-28T07:06:22.118Z,11.70
2018-09-28T07:08:50.445Z,11.80
2018-09-28T07:11:18.804Z,12.00
2018-09-28T07:13:47.195Z,12.10
2018-09-28T07:16:15.591Z,12.30
2018-09-28T07:18:43.910Z,12.40
2018-09-28T07:21:12.248Z,12.60
2018-09-28T07:23:40.624Z,12.70
2018-09-28T07:26:08.968Z,12.80
2018-09-28T07:28:37.330Z,13.00
2018-09-28T07:31:05.728Z,13.20
2018-09-28T07:33:34.117Z,13.40
2018-09-28T07:36:02.590Z,13.60
2018-09-28T07:38:30.901Z,13.80
2018-09-28T07:40:59.249Z,14.00
2018-09-28T07:43:27.648Z,14.20
2018-09-28T07:45:56.009Z,14.30
2018-09-28T07:48:24.359Z,14.50
2018-09-28T07:50:52.752Z,14.70
2018-09-28T07:53:21.108Z,14.90
2018-09-28T07:55:49.577Z,15.00
2018-09-28T07:58:17.913Z,15.20
2018-09-28T08:00:46.303Z,15.30
2018-09-28T08:03:14.664Z,15.50
2018-09-28T08:05:43.140Z,15.60
2018-09-28T08:08:11.593Z,15.70
2018-09-28T08:10:39.972Z,15.80
2018-09-28T08:13:08.328Z,15.90
2018-09-28T08:15:36.695Z,16.00
2018-09-28T08:18:05.076Z,16.10
2018-09-28T08:20:33.476Z,16.20
2018-09-28T08:23:01.856Z,16.30
2018-09-28T08:25:30.236Z,16.30
2018-09-28T08:27:58.663Z,16.30
2018-09-28T08:30:27.090Z,16.40
2018-09-28T08:32:55.496Z,16.40
2018-09-28T08:35:23.877Z,16.40
2018-09-28T08:37:52.230Z,16.50
2018-09-28T08:40:20.632Z,16.60
2018-09-28T08:42:48.960Z,16.50
2018-09-28T08:45:17.333Z,16.60
2018-09-28T08:47:45.652Z,16.70
2018-09-28T08:50:14.025Z,16.80
2018-09-28T08:52:42.360Z,16.90
2018-09-28T08:55:10.780Z,17.00
2018-09-28T08:57:39.133Z,17.00
2018-09-28T09:00:07.570Z,17.00
2018-09-28T09:02:35.932Z,17.00
2018-09-28T09:05:04.358Z,17.00
2018-09-28T09:07:32.723Z,17.00
2018-09-28T09:10:01.102Z,17.10
2018-09-28T09:12:29.448Z,17.10
2018-09-28T09:14:57.841Z,17.20
2018-09-28T09:17:26.184Z,17.20
2018-09-28T09:19:54.585Z,17.30
2018-09-28T09:22:22.931Z,17.30
2018-09-28T09:24:51.320Z,17.40
2018-09-28T09:27:19.665Z,17.40
2018-09-28T09:29:48.037Z,17.40
2018-09-28T09:32:16.488Z,17.50
2018-09-28T09:34:44.905Z,17.50
2018-09-28T09:37:13.316Z,17.50
2018-09-28T09:39:41.692Z,17.60
2018-09-28T09:42:10.085Z,17.60
2018-09-28T09:44:38.428Z,17.70
2018-09-28T09:47:06.828Z,17.80
2018-09-28T09:49:35.172Z,17.80
2018-09-28T09:52:03.573Z,17.90
2018-09-28T09:54:31.954Z,17.90
2018-09-28T09:57:00.336Z,17.90
2018-09-28T09:59:28.776Z,17.90
2018-09-28T10:02:02.607Z,17.90
2018-09-28T10:04:30.960Z,18.00
2018-09-28T10:06:59.353Z,18.00
2018-09-28T10:09:27.695Z,18.00
2018-09-28T10:11:56.068Z,18.00
2018-09-28T10:14:24.415Z,18.00
2018-09-28T10:16:52.966Z,18.00
2018-09-28T10:19:21.390Z,18.00
2018-09-28T10:21:49.713Z,18.00
2018-09-28T10:24:18.100Z,18.00
2018-09-28T10:26:47.372Z,18.00
2018-09-28T10:29:15.741Z,18.10
2018-09-28T10:31:44.112Z,18.10
2018-09-28T10:34:12.524Z,18.10
2018-09-28T10:36:40.921Z,18.10
2018-09-28T10:39:09.613Z,18.10
2018-09-28T10:41:38.033Z,18.20
2018-09-28T10:44:06.504Z,18.30
2018-09-28T10:46:35.050Z,18.40
2018-09-28T10:49:03.416Z,18.50
2018-09-28T10:51:31.874Z,18.60
2018-09-28T10:54:00.228Z,18.60
2018-09-28T10:56:28.613Z,18.70
2018-09-28T10:58:57.152Z,18.80
2018-09-28T11:01:25.471Z,18.70
2018-09-28T11:03:53.864Z,18.70
2018-09-28T11:06:22.249Z,18.80
2018-09-28T11:08:50.669Z,18.80
2018-09-28T11:11:19.010Z,18.80
2018-09-28T11:13:47.353Z,18.90
2018-09-28T11:16:15.732Z,18.90
2018-09-28T11:18:44.093Z,18.90
2018-09-28T11:21:12.504Z,18.90
2018-09-28T11:23:41.009Z,19.00
2018-09-28T11:26:09.388Z,19.00
2018-09-28T11:28:37.745Z,19.00
2018-09-28T11:31:06.124Z,19.10
2018-09-28T11:33:34.525Z,19.10
2018-09-28T11:36:02.890Z,19.10
2018-09-28T11:38:31.240Z,19.20
2018-09-28T11:40:59.584Z,19.20
2018-09-28T11:43:27.977Z,19.20
2018-09-28T11:45:56.340Z,19.30
2018-09-28T11:48:24.724Z,19.30
2018-09-28T11:50:53.082Z,19.20
2018-09-28T11:53:21.485Z,19.30
2018-09-28T11:55:49.872Z,19.30
2018-09-28T11:58:18.262Z,19.30
2018-09-28T12:00:46.626Z,19.30
2018-09-28T12:03:15.071Z,19.30
2018-09-28T12:05:43.400Z,19.40
2018-09-28T12:08:11.780Z,19.40
2018-09-28T12:10:40.131Z,19.40
2018-09-28T12:13:08.511Z,19.40
2018-09-28T12:15:36.928Z,19.40
2018-09-28T12:18:05.335Z,19.40
2018-09-28T12:20:33.704Z,19.40
2018-09-28T12:23:02.084Z,19.40
2018-09-28T12:25:30.448Z,19.40
2018-09-28T12:27:58.840Z,19.30
2018-09-28T12:30:27.258Z,19.40
2018-09-28T12:32:55.946Z,19.40
2018-09-28T12:35:24.466Z,19.50
2018-09-28T12:37:52.916Z,19.50
2018-09-28T12:40:21.321Z,19.50
2018-09-28T12:42:49.823Z,19.50
2018-09-28T12:45:18.235Z,19.50
2018-09-28T12:47:46.560Z,19.50
2018-09-28T12:50:14.963Z,19.50
2018-09-28T12:52:43.341Z,19.40
2018-09-28T12:55:11.702Z,19.40
2018-09-28T12:57:40.070Z,19.40
2018-09-28T13:00:08.408Z,19.40
2018-09-28T13:02:36.787Z,19.40
2018-09-28T13:05:05.165Z,19.50
2018-09-28T13:07:33.534Z,19.40
2018-09-28T13:10:01.866Z,19.40
2018-09-28T13:12:30.283Z,19.40
2018-09-28T13:14:58.689Z,19.40
2018-09-28T13:17:27.002Z,19.40
2018-09-28T13:19:55.409Z,19.40
2018-09-28T13:22:23.744Z,19.50
2018-09-28T13:24:52.240Z,19.40
2018-09-28T13:27:20.465Z,19.50
2018-09-28T13:29:48.832Z,19.60
2018-09-28T13:32:17.212Z,19.60
2018-09-28T13:34:45.541Z,19.50
2018-09-28T13:37:13.884Z,19.50
2018-09-28T13:39:42.244Z,19.50
2018-09-28T13:42:10.624Z,19.40
2018-09-28T13:44:38.968Z,19.40
2018-09-28T13:47:07.408Z,19.30
2018-09-28T13:49:35.844Z,19.40
2018-09-28T13:52:04.215Z,19.40
2018-09-28T13:54:32.738Z,19.30
2018-09-28T13:57:01.049Z,19.30
2018-09-28T13:59:29.436Z,19.30
2018-09-28T14:01:57.820Z,19.20
2018-09-28T14:04:26.280Z,19.20
2018-09-28T14:06:54.802Z,19.30
2018-09-28T14:09:23.134Z,19.20
2018-09-28T14:11:51.480Z,19.20
2018-09-28T14:14:20.170Z,19.30
2018-09-28T14:16:48.591Z,19.20
2018-09-28T14:19:16.926Z,19.20
2018-09-28T14:21:45.265Z,19.20
2018-09-28T14:24:13.667Z,19.10
2018-09-28T14:26:42.074Z,19.10
2018-09-28T14:29:10.481Z,19.10
2018-09-28T14:31:38.825Z,19.00
2018-09-28T14:34:07.263Z,19.10
2018-09-28T14:36:35.675Z,19.10
2018-09-28T14:39:05.572Z,19.10
2018-09-28T14:41:33.937Z,19.10
2018-09-28T14:44:02.292Z,19.00
2018-09-28T14:46:30.651Z,19.00
2018-09-28T14:48:59.093Z,19.00
2018-09-28T14:51:27.337Z,19.00
2018-09-28T14:53:55.712Z,18.90
2018-09-28T14:56:24.129Z,18.80
2018-09-28T14:58:52.529Z,18.80
2018-09-28T15:01:20.981Z,18.80
2018-09-28T15:03:49.152Z,18.80
2018-09-28T15:06:17.607Z,18.80
2018-09-28T15:08:45.999Z,18.80
2018-09-28T15:11:14.421Z,18.80
2018-09-28T15:13:42.873Z,18.70
2018-09-28T15:16:11.275Z,18.70
2018-09-28T15:18:39.609Z,18.70
2018-09-28T15:21:08.003Z,18.60
2018-09-28T15:23:36.412Z,18.60
2018-09-28T15:26:04.773Z,18.60
2018-09-28T15:28:33.103Z,18.50
2018-09-28T15:31:01.453Z,18.50
2018-09-28T15:33:29.804Z,18.50
2018-09-28T15:35:58.168Z,18.40
2018-09-28T15:38:26.504Z,18.40
2018-09-28T15:40:54.865Z,18.30
2018-09-28T15:43:23.308Z,18.20
2018-09-28T15:45:51.669Z,18.20
2018-09-28T15:48:20.004Z,18.10
2018-09-28T15:50:48.373Z,18.10
2018-09-28T15:53:16.821Z,18.10
2018-09-28T15:55:45.232Z,18.10
2018-09-28T15:58:13.565Z,18.00
2018-09-28T16:00:41.948Z,18.10
2018-09-28T16:03:10.292Z,18.00
2018-09-28T16:05:38.661Z,18.00
2018-09-28T16:08:07.166Z,18.00
2018-09-28T16:10:35.545Z,17.90
2018-09-28T16:13:03.893Z,17.90
2018-09-28T16:15:32.247Z,17.90
2018-09-28T16:18:00.568Z,17.90
2018-09-28T16:20:28.918Z,17.90
2018-09-28T16:22:57.260Z,17.80
2018-09-28T16:25:25.705Z,17.80
2018-09-28T16:27:54.098Z,17.70
2018-09-28T16:30:22.465Z,17.60
2018-09-28T16:32:50.884Z,17.60
2018-09-28T16:35:19.250Z,17.60
2018-09-28T16:37:47.584Z,17.50
2018-09-28T16:40:16.004Z,17.40
2018-09-28T16:42:44.328Z,17.40
2018-09-28T16:45:12.695Z,17.30
2018-09-28T16:47:41.028Z,17.20
2018-09-28T16:50:09.392Z,17.20
2018-09-28T16:52:37.765Z,17.10
2018-09-28T16:55:06.125Z,17.00
2018-09-28T16:57:34.504Z,17.00
2018-09-28T17:00:02.835Z,16.90
2018-09-28T17:02:31.197Z,16.90
2018-09-28T17:04:59.516Z,16.80
2018-09-28T17:07:27.931Z,16.70
2018-09-28T17:09:56.336Z,16.70
2018-09-28T17:12:24.708Z,16.60
2018-09-28T17:14:53.052Z,16.50
2018-09-28T17:17:21.457Z,16.50
2018-09-28T17:19:49.804Z,16.40
2018-09-28T17:22:18.207Z,16.40
2018-09-28T17:24:46.548Z,16.30
2018-09-28T17:27:14.920Z,16.30
2018-09-28T17:29:43.269Z,16.20
2018-09-28T17:32:11.655Z,16.20
2018-09-28T17:34:39.996Z,16.10
2018-09-28T17:37:08.375Z,16.10
2018-09-28T17:39:36.718Z,16.00
2018-09-28T17:42:05.109Z,16.00
2018-09-28T17:44:33.476Z,15.90
2018-09-28T17:47:01.859Z,15.90
2018-09-28T17:49:30.205Z,15.80
2018-09-28T17:51:58.585Z,15.80
2018-09-28T17:54:26.932Z,15.80
2018-09-28T17:56:55.300Z,15.70
2018-09-28T17:59:23.650Z,15.70
2018-09-28T18:01:52.040Z,15.60
2018-09-28T18:04:20.376Z,15.60
2018-09-28T18:06:48.744Z,15.50
2018-09-28T18:09:17.136Z,15.50
2018-09-28T18:11:45.504Z,15.40
2018-09-28T18:14:13.895Z,15.40
2018-09-28T18:16:42.260Z,15.30
2018-09-28T18:19:10.593Z,15.30
2018-09-28T18:21:39.001Z,15.20
2018-09-28T18:24:07.449Z,15.20
2018-09-28T18:26:36.176Z,15.10
2018-09-28T18:29:04.603Z,15.10
2018-09-28T18:31:32.933Z,15.00
2018-09-28T18:34:01.317Z,15.00
2018-09-28T18:36:29.658Z,14.90
2018-09-28T18:38:58.057Z,14.80
2018-09-28T18:41:26.524Z,14.70
2018-09-28T18:43:54.906Z,14.70
2018-09-28T18:46:23.254Z,14.60
2018-09-28T18:48:51.637Z,14.50
2018-09-28T18:51:19.976Z,14.40
2018-09-28T18:53:48.356Z,14.40
2018-09-28T18:56:16.708Z,14.40
2018-09-28T18:58:45.154Z,14.30
2018-09-28T19:01:13.495Z,14.20
2018-09-28T19:03:41.909Z,14.20
2018-09-28T19:06:10.265Z,14.10
2018-09-28T19:08:38.772Z,14.10
2018-09-28T19:11:07.372Z,14.00
2018-09-28T19:13:35.949Z,14.00
2018-09-28T19:16:04.293Z,13.90
2018-09-28T19:18:32.665Z,13.90
2018-09-28T19:21:01.029Z,13.80
2018-09-28T19:23:29.413Z,13.70
2018-09-28T19:25:57.756Z,13.60
2018-09-28T19:28:26.324Z,13.60
2018-09-28T19:30:54.724Z,13.60
2018-09-28T19:33:23.155Z,13.50
2018-09-28T19:35:51.528Z,13.50
2018-09-28T19:38:20.103Z,13.40
2018-09-28T19:40:48.446Z,13.40
2018-09-28T19:43:16.804Z,13.40
2018-09-28T19:45:45.128Z,13.30
2018-09-28T19:48:13.505Z,13.30
2018-09-28T19:50:41.832Z,13.20
2018-09-28T19:53:10.227Z,13.20
2018-09-28T19:55:38.572Z,13.20
2018-09-28T19:58:06.923Z,13.10
2018-09-28T20:00:35.257Z,13.00
2018-09-28T20:03:03.675Z,12.90
2018-09-28T20:05:32.041Z,12.90
2018-09-28T20:08:00.412Z,12.80
2018-09-28T20:10:28.760Z,12.80
2018-09-28T20:12:57.105Z,12.70
2018-09-28T20:15:25.463Z,12.70
2018-09-28T20:17:53.804Z,12.60
2018-09-28T20:20:22.179Z,12.60
2018-09-28T20:22:50.497Z,12.50
2018-09-28T20:25:18.852Z,12.50
2018-09-28T20:27:47.231Z,12.50
2018-09-28T20:30:15.608Z,12.50
2018-09-28T20:32:43.957Z,12.40
2018-09-28T20:35:12.320Z,12.40
2018-09-28T20:37:40.663Z,12.40
2018-09-28T20:40:09.028Z,12.40
2018-09-28T20:42:37.360Z,12.30
2018-09-28T20:45:05.728Z,12.30
2018-09-28T20:47:34.169Z,12.30
2018-09-28T20:50:02.530Z,12.30
2018-09-28T20:52:30.965Z,12.20
2018-09-28T20:54:59.324Z,12.20
2018-09-28T20:57:27.652Z,12.10
2018-09-28T20:59:56.009Z,12.10
2018-09-28T21:02:24.346Z,12.00
2018-09-28T21:04:52.708Z,12.00
2018-09-28T21:07:21.086Z,11.90
2018-09-28T21:09:49.476Z,11.80
2018-09-28T21:12:17.842Z,11.80
2018-09-28T21:14:46.216Z,11.70
2018-09-28T21:17:14.655Z,11.60
2018-09-28T21:19:43.048Z,11.60
2018-09-28T21:22:11.432Z,11.50
2018-09-28T21:24:39.870Z,11.40
2018-09-28T21:27:08.149Z,11.30
2018-09-28T21:29:36.527Z,11.30
2018-09-28T21:32:04.881Z,11.30
2018-09-28T21:34:33.293Z,11.20
2018-09-28T21:37:01.624Z,11.20
2018-09-28T21:39:29.956Z,11.10
2018-09-28T21:41:58.358Z,11.10
2018-09-28T21:44:26.685Z,11.10
2018-09-28T21:46:55.065Z,11.10
2018-09-28T21:49:23.400Z,11.10
2018-09-28T21:51:51.877Z,11.10
2018-09-28T21:54:20.220Z,11.00
2018-09-28T21:56:48.676Z,11.00
2018-09-28T21:59:17.016Z,11.00
2018-09-28T22:01:45.417Z,11.00
2018-09-28T22:04:13.764Z,11.00
2018-09-28T22:06:42.127Z,11.00
2018-09-28T22:09:10.501Z,11.00
2018-09-28T22:11:38.900Z,11.00
2018-09-28T22:14:07.407Z,11.00
2018-09-28T22:16:35.792Z,11.00
2018-09-28T22:19:04.250Z,11.00
2018-09-28T22:21:32.633Z,11.00
2018-09-28T22:24:00.976Z,11.00
2018-09-28T22:26:29.344Z,11.00
2018-09-28T22:28:57.712Z,11.00
2018-09-28T22:31:26.083Z,11.00
2018-09-28T22:33:54.484Z,10.90
2018-09-28T22:36:22.840Z,10.90
2018-09-28T22:38:51.159Z,10.90
2018-09-28T22:41:19.512Z,10.90
2018-09-28T22:43:47.891Z,10.90
2018-09-28T22:46:16.264Z,10.90
2018-09-28T22:48:44.596Z,10.80
2018-09-28T22:51:12.948Z,10.80
2018-09-28T22:53:41.277Z,10.80
2018-09-28T22:56:09.655Z,10.80
2018-09-28T22:58:37.985Z,10.80
2018-09-28T23:01:06.705Z,10.80
2018-09-28T23:03:35.037Z,10.80
2018-09-28T23:06:03.396Z,10.80
2018-09-28T23:08:31.852Z,10.80
2018-09-28T23:11:00.235Z,10.70
2018-09-28T23:13:28.586Z,10.70
2018-09-28T23:15:56.984Z,10.70
2018-09-28T23:18:25.333Z,10.70
2018-09-28T23:20:53.680Z,10.70
2018-09-28T23:23:22.066Z,10.60
2018-09-28T23:25:50.424Z,10.60
2018-09-28T23:28:19.000Z,10.60
2018-09-28T23:30:47.343Z,10.60
2018-09-28T23:33:15.725Z,10.60
2018-09-28T23:35:44.058Z,10.60
2018-09-28T23:38:12.433Z,10.60
2018-09-28T23:40:40.763Z,10.60
2018-09-28T23:43:09.136Z,10.60
2018-09-28T23:45:37.512Z,10.60
2018-09-28T23:48:06.141Z,10.60
2018-09-28T23:50:34.468Z,10.60
2018-09-28T23:53:02.843Z,10.60
2018-09-28T23:55:31.172Z,10.50
2018-09-28T23:57:59.559Z,10.50
